Tiempo atmosférico en la estación meteorológica de Espolla, Girona (94 m.)



Fecha
DESCASC
Temp. máxima en grados centígrados (hora)
DESCASC
Temp. mínima en grados centígrados (hora)
DESCASC
Temp. media en grados centígrados
DESCASC
Racha de viento máxima en m/sg (hora)
DESCASC
Velocidad máxima media en intervalos de 10 minutos(hora)
DESCASC
Precipitaciones diarias en mm
DESCASC
Precipitaciones de 00:00 a 06:00 en mm
DESCASC
Precipitaciones de 06:00 a 12:00 en mm
DESCASC
Precipitaciones de 12:00 a 18:00 en mm
DESCASC
Precipitaciones de 18:00 a 24:00 en mm
DESCASC
10-01-2020 14.5 (13:50) 9 (00:00) 11.8 24.17 (18:30) 11.39 (15:20) 0.8 0.8 0 0 0
03-01-2020 12.8 (13:30) 4.1 (00:00) 8.5 6.39 (23:59) 3.89 (23:59) 0 0 0 0 0
17-01-2020 16.8 (14:10) 5.4 (00:00) 11.1 21.94 (17:00) 11.94 (16:30) 2.4 0 0 2.4 0
16-01-2020 13.8 (14:20) 5.3 (00:00) 9.6 5 (03:30) 3.61 (03:30) 0 0 0 0 0
15-01-2020 15.1 (15:40) 4.4 (00:00) 9.8 6.39 (13:40) 4.17 (23:10) 0 0 0 0 0
14-01-2020 14.4 (15:50) 2.4 (00:00) 8.4 5.83 (00:10) 4.17 (00:10) 0 0 0 0 0
13-01-2020 12.7 (14:20) 1.9 (00:00) 7.3 5.28 (23:20) 3.61 (23:20) 0 0 0 0 0
12-01-2020 14.6 (15:30) 1.7 (00:00) 8.2 5.83 (21:00) 3.61 (21:00) 0 0 0 0 0
11-01-2020 13.8 (12:10) 3.5 (00:00) 8.7 11.67 (00:50) 6.39 (03:40) 0 0 0 0 0
09-01-2020 16 (14:50) 3.5 (00:00) 9.8 7.5 (15:10) 4.72 (15:40) 0 0 0 0 0
08-01-2020 17.4 (14:20) 6.1 (00:00) 11.7 8.89 (07:00) 5.83 (07:20) 0 0 0 0 0
07-01-2020 16.8 (15:50) 3.5 (00:00) 10.1 13.33 (22:20) 8.06 (22:20) 0 0 0 0 0
06-01-2020 15.1 (14:40) 4.6 (00:00) 9.9 5 (06:10) 3.33 (03:30) 0 0 0 0 0
05-01-2020 20.3 (12:30) 7 (00:00) 13.6 15.56 (03:00) 10 (03:00) 0 0 0 0 0
04-01-2020 17.4 (15:30) 10.5 (00:00) 13.9 17.78 (03:30) 8.61 (03:40) 0 0 0 0 0
19-12-2019 16.3 (14:00) 9.7 (08:00) 13 11.39 (21:40) 6.67 (21:30) 0 0 0 0 0
02-01-2020 12.4 (15:30) 4.1 (00:00) 8.2 4.17 (02:30) 3.06 (18:00) 0 0 0 0 0
01-01-2020 12.3 (15:20) 3.4 (00:00) 7.9 5 (02:10) 3.61 (02:10) 0 0 0 0 0
31-12-2019 14.1 (12:20) 5.5 (00:00) 9.8 5.56 (20:30) 3.61 (20:30) 0 0 0 0 0
30-12-2019 13.1 (15:40) 3.3 (00:00) 8.2 4.72 (19:50) 3.33 (19:20) 0 0 0 0 0
29-12-2019 13.4 (14:30) 4.7 (00:00) 9 5.28 (06:10) 3.61 (02:10) 0 0 0 0 0
28-12-2019 15.6 (12:30) 5.1 (00:00) 10.4 12.5 (01:50) 7.5 (01:40) 0 0 0 0 0
27-12-2019 19.3 (16:00) 4.5 (00:00) 11.9 11.67 (23:10) 8.06 (23:40) 0 0 0 0 0
26-12-2019 19.2 (13:10) 7.2 (00:00) 13.2 18.89 (12:10) 11.11 (12:00) 0 0 0 0 0
25-12-2019 21 (15:00) 9.1 (00:00) 15.1 9.17 (00:30) 5.56 (00:30) 0 0 0 0 0
24-12-2019 19.5 (14:00) 6.2 (00:00) 12.8 11.39 (21:50) 6.39 (23:00) 0 0 0 0 0
23-12-2019 16.7 (14:50) 8.6 (00:00) 12.7 18.61 (02:10) 9.72 (02:10) 0 0 0 0 0
22-12-2019 18.2 (15:20) 6.3 (00:00) 12.3 17.5 (09:10) 9.72 (21:50) 0.4 0 0.2 0 0.2
21-12-2019 17.5 (15:50) 9.6 (00:00) 13.6 20.83 (22:10) 10.28 (22:10) 5.2 0 0 0 5.2
20-12-2019 19.9 (12:50) 11.6 (00:00) 15.8 15.28 (07:00) 9.17 (06:30) 0 0 0 0 0

Gráficas

Temp. máximas Temp. mínimas Temp. medias Precipitaciones Rachas de viento máximas Velocidades máximas media en intervalos de 10 minutos

Datos horarios

Fecha y hora oficial Temperatura (ºC) Velocidad del viento (km/h) Dirección del viento Racha (km/h) Dirección de racha Precipitación (mm) Presión (hPa) Tendencia (hPa) Humedad (%)
2020-01-17 23:00:00 11.9 27 Norte 58 Norte 0 -- -- 43
2020-01-17 22:00:00 10.4 9 Nordeste 30 Nordeste 0 -- -- 54
2020-01-17 21:00:00 10.7 11 Oeste 39 Norte 0 -- -- 51
2020-01-17 20:00:00 11.6 12 Norte 42 Norte 0 -- -- 45
2020-01-17 19:00:00 11.6 18 Norte 39 Norte 0 -- -- 45
2020-01-17 18:00:00 12.7 23 Norte 75 Norte 0 -- -- 42
2020-01-17 17:00:00 10.7 39 Norte 79 Norte 1.8 -- -- 59
2020-01-17 16:00:00 9.6 37 Norte 68 Norte 0.6 -- -- 72
2020-01-17 15:00:00 12 30 Norte 58 Norte 0 -- -- 56
2020-01-17 14:00:00 16.4 4 Sudeste 12 Sudeste 0 -- -- 61
2020-01-17 13:00:00 15.2 7 Sur 14 Sur 0 -- -- 68
2020-01-17 12:00:00 14.5 9 Sudoeste 14 Sur 0 -- -- 68
2020-01-17 11:00:00 13.5 3 Sudoeste 6 Oeste 0 -- -- 73
2020-01-17 10:00:00 11.3 2 Sur 14 Nordeste 0 -- -- 80
2020-01-17 09:00:00 9.2 5 Nordeste 17 Este 0 -- -- 87
2020-01-17 08:00:00 8.2 10 Nordeste 13 Nordeste 0 -- -- 90
2020-01-17 07:00:00 7.4 2 Nordeste 15 Nordeste 0 -- -- 91
2020-01-17 06:00:00 6.8 6 Nordeste 18 Nordeste 0 -- -- 92
2020-01-17 05:00:00 6.4 13 Nordeste 18 Nordeste 0 -- -- 93
2020-01-17 04:00:00 6.2 4 Nordeste 16 Nordeste 0 -- -- 94
2020-01-17 03:00:00 6.3 6 Nordeste 12 Nordeste 0 -- -- 95
2020-01-17 02:00:00 6.4 7 Norte 11 Nordeste 0 -- -- 96
2020-01-17 01:00:00 6.3 5 Norte 8 Norte 0 -- -- 97
2020-01-17 00:00:00 6.1 0 Calma 10 Sudeste 0 -- -- 95
2020-01-16 23:00:00 6.4 3 Este 6 Este 0 -- -- 95
2020-01-16 22:00:00 7.2 2 Nordeste 12 Nordeste 0 -- -- 93
2020-01-16 21:00:00 7.9 3 Nordeste 11 Este 0 -- -- 91
2020-01-16 20:00:00 8.4 7 Nordeste 11 Nordeste 0 -- -- 90
2020-01-16 19:00:00 9.7 4 Nordeste 9 Nordeste 0 -- -- 85
2020-01-16 18:00:00 11.5 5 Nordeste 9 Este 0 -- -- 81
2020-01-16 17:00:00 12.5 3 Este 8 Este 0 -- -- 76
2020-01-16 16:00:00 12.6 4 Sudeste 15 Sur 0 -- -- 78
2020-01-16 15:00:00 13 4 Sur 17 Sudoeste 0 -- -- 73
2020-01-16 14:00:00 13.4 7 Sudoeste 15 Sur 0 -- -- 68
2020-01-16 13:00:00 12.3 4 Oeste 9 Sur 0 -- -- 74
2020-01-16 12:00:00 12.2 4 Sur 6 Sur 0 -- -- 78
2020-01-16 11:00:00 10.3 4 Sur 10 Sur 0 -- -- 87
2020-01-16 10:00:00 8.4 0 Calma 7 Sudoeste 0 -- -- 93
2020-01-16 09:00:00 7 3 Norte 6 Sudoeste 0 -- -- 93
2020-01-16 08:00:00 7.3 3 Nordeste 8 Norte 0 -- -- 92
2020-01-16 07:00:00 5.6 3 Norte 11 Nordeste 0 -- -- 92
2020-01-16 06:00:00 5.3 3 Nordeste 12 Nordeste 0 -- -- 90
2020-01-16 05:00:00 5.6 3 Nordeste 11 Nordeste 0 -- -- 89
2020-01-16 04:00:00 6.1 5 Nordeste 18 Nordeste 0 -- -- 88
2020-01-16 03:00:00 6.3 7 Nordeste 15 Este 0 -- -- 87
2020-01-16 02:00:00 6.5 5 Nordeste 14 Nordeste 0 -- -- 85
2020-01-16 01:00:00 6.8 11 Nordeste 15 Nordeste 0 -- -- 84
2020-01-16 00:00:00 7 11 Nordeste 20 Nordeste 0 -- -- 81
2020-01-15 23:00:00 6.6 13 Nordeste 20 Nordeste 0 -- -- 81
2020-01-15 22:00:00 6.7 7 Nordeste 15 Nordeste 0 -- -- 83
2020-01-15 21:00:00 7.2 4 Norte 18 Nordeste 0 -- -- 80
2020-01-15 20:00:00 8 10 Nordeste 17 Nordeste 0 -- -- 79
2020-01-15 19:00:00 8.6 10 Nordeste 18 Nordeste 0 -- -- 78
2020-01-15 18:00:00 10.2 7 Nordeste 10 Este 0 -- -- 76
2020-01-15 17:00:00 13 5 Sudeste 13 Sudoeste 0 -- -- 64
2020-01-15 16:00:00 15 8 Sudoeste 14 Sur 0 -- -- 48
2020-01-15 15:00:00 14.6 7 Sudoeste 15 Sudoeste 0 -- -- 52
2020-01-15 14:00:00 13.9 12 Sudoeste 23 Sudoeste 0 -- -- 55
2020-01-15 13:00:00 13.9 13 Sudoeste 23 Sudoeste 0 -- -- 57
2020-01-15 12:00:00 12.8 9 Sudoeste 17 Sudoeste 0 -- -- 68
2020-01-15 11:00:00 11.4 2 Oeste 10 Oeste 0 -- -- 75
2020-01-15 10:00:00 8.4 0 Calma 10 Noroeste 0 -- -- 85
2020-01-15 09:00:00 5.3 4 Norte 5 Norte 0 -- -- 92
2020-01-15 08:00:00 5 2 Norte 6 Sudeste 0 -- -- 91
2020-01-15 07:00:00 4.7 2 Nordeste 6 Nordeste 0 -- -- 92
2020-01-15 06:00:00 5.5 0 Calma 6 Este 0 -- -- 94
2020-01-15 05:00:00 5.7 2 Nordeste 5 Sudeste 0 -- -- 92
2020-01-15 04:00:00 5.7 0 Calma 9 Sudeste 0 -- -- 93
2020-01-15 03:00:00 5.8 5 Sudeste 10 Sudeste 0 -- -- 93
2020-01-15 02:00:00 4.8 2 Este 9 Sudeste 0 -- -- 93
2020-01-15 01:00:00 5.8 0 Calma 13 Sur 0 -- -- 90
2020-01-15 00:00:00 5.5 2 Sudeste 8 Norte 0 -- -- 90
2020-01-14 23:00:00 3.8 3 Nordeste 8 Sur 0 -- -- 88
2020-01-14 22:00:00 4.3 3 Nordeste 12 Nordeste 0 -- -- 86
2020-01-14 21:00:00 4.9 5 Nordeste 14 Nordeste 0 -- -- 83
2020-01-14 20:00:00 6.7 9 Nordeste 14 Nordeste 0 -- -- 78
2020-01-14 19:00:00 7.8 9 Nordeste 14 Nordeste 0 -- -- 74
2020-01-14 18:00:00 10.3 5 Nordeste 12 Este 0 -- -- 66
2020-01-14 17:00:00 13.6 6 Sudeste 11 Sudeste 0 -- -- 54
2020-01-14 16:00:00 14.3 3 Norte 6 Norte 0 -- -- 49
2020-01-14 15:00:00 13.3 3 Este 12 Sur 0 -- -- 48
2020-01-14 14:00:00 12.6 8 Sur 17 Sudoeste 0 -- -- 50
2020-01-14 13:00:00 12 6 Sudoeste 13 Sur 0 -- -- 55
2020-01-14 12:00:00 10.9 5 Sur 10 Sudoeste 0 -- -- 70
2020-01-14 11:00:00 8.9 4 Sudoeste 7 Sudoeste 0 -- -- 79
2020-01-14 10:00:00 6.9 3 Norte 8 Nordeste 0 -- -- 86
2020-01-14 09:00:00 4.2 3 Norte 11 Nordeste 0 -- -- 91
2020-01-14 08:00:00 2.9 0 Calma 11 Nordeste 0 -- -- 92
2020-01-14 07:00:00 2.5 0 Calma 12 Nordeste 0 -- -- 92
2020-01-14 06:00:00 2.6 5 Nordeste 12 Nordeste 0 -- -- 92
2020-01-14 05:00:00 2.8 4 Nordeste 10 Nordeste 0 -- -- 91
2020-01-14 04:00:00 2.7 4 Nordeste 12 Nordeste 0 -- -- 91
2020-01-14 03:00:00 3.1 6 Nordeste 9 Nordeste 0 -- -- 89
2020-01-14 02:00:00 3.7 3 Norte 19 Nordeste 0 -- -- 89
2020-01-14 01:00:00 4.5 11 Nordeste 21 Nordeste 0 -- -- 87
2020-01-14 00:00:00 4.5 12 Nordeste 19 Nordeste 0 -- -- 87
2020-01-13 23:00:00 4.7 9 Nordeste 17 Nordeste 0 -- -- 88
2020-01-13 22:00:00 4.2 5 Nordeste 14 Nordeste 0 -- -- 89
2020-01-13 21:00:00 4.6 4 Nordeste 12 Nordeste 0 -- -- 86
2020-01-13 20:00:00 5.6 3 Nordeste 15 Nordeste 0 -- -- 83
2020-01-13 19:00:00 7 5 Nordeste 14 Nordeste 0 -- -- 81
2020-01-13 18:00:00 7.7 6 Nordeste 9 Nordeste 0 -- -- 82
2020-01-13 17:00:00 10.7 0 Calma 8 Sur 0 -- -- 72
2020-01-13 16:00:00 11.3 6 Sur 14 Sur 0 -- -- 66
2020-01-13 15:00:00 11.8 8 Sur 13 Sur 0 -- -- 59
2020-01-13 14:00:00 12.3 4 Sudoeste 11 Sudoeste 0 -- -- 59
2020-01-13 13:00:00 12 5 Sudoeste 12 Sudoeste 0 -- -- 57
2020-01-13 12:00:00 11.8 5 Sudoeste 10 Sudoeste 0 -- -- 64
2020-01-13 11:00:00 9.1 0 Calma 3 Sur 0 -- -- 61
2020-01-13 10:00:00 7.9 2 Noroeste 11 Nordeste 0 -- -- 63
2020-01-13 09:00:00 2.8 7 Nordeste 12 Nordeste 0 -- -- 73
2020-01-13 08:00:00 1.9 6 Nordeste 12 Nordeste 0 -- -- 75
2020-01-13 07:00:00 2.1 4 Nordeste 13 Nordeste 0 -- -- 74
2020-01-13 06:00:00 2.3 5 Norte 12 Nordeste 0 -- -- 73
2020-01-13 05:00:00 2.6 3 Nordeste 12 Nordeste 0 -- -- 73
2020-01-13 04:00:00 3 6 Nordeste 11 Nordeste 0 -- -- 73
2020-01-13 03:00:00 2.8 3 Nordeste 10 Nordeste 0 -- -- 73
2020-01-13 02:00:00 3.2 0 Calma 15 Nordeste 0 -- -- 71
2020-01-13 01:00:00 3.8 5 Norte 16 Norte 0 -- -- 70
2020-01-13 00:00:00 3.9 6 Nordeste 13 Nordeste 0 -- -- 71
2020-01-12 23:00:00 4.2 3 Norte 12 Norte 0 -- -- 73
2020-01-12 22:00:00 5 6 Nordeste 20 Nordeste 0 -- -- 73
2020-01-12 21:00:00 5.1 13 Nordeste 21 Nordeste 0 -- -- 76
2020-01-12 20:00:00 4.4 7 Nordeste 13 Nordeste 0 -- -- 81
2020-01-12 19:00:00 5.1 5 Nordeste 9 Nordeste 0 -- -- 77
2020-01-12 18:00:00 7.8 5 Nordeste 10 Nordeste 0 -- -- 68
2020-01-12 17:00:00 13.1 5 Sur 9 Sur 0 -- -- 49
2020-01-12 16:00:00 14.4 4 Sudoeste 10 Sudoeste 0 -- -- 43
2020-01-12 15:00:00 14.2 5 Sudoeste 9 Sur 0 -- -- 42
2020-01-12 14:00:00 13.2 6 Sur 11 Sudoeste 0 -- -- 45
2020-01-12 13:00:00 12.7 4 Sudoeste 9 Sudeste 0 -- -- 50
2020-01-12 12:00:00 11.4 4 Sur 8 Sur 0 -- -- 53
2020-01-12 11:00:00 9.5 4 Sur 7 Sudoeste 0 -- -- 58
2020-01-12 10:00:00 7 0 Calma 9 Nordeste 0 -- -- 68
2020-01-12 09:00:00 2.5 3 Norte 12 Nordeste 0 -- -- 83
2020-01-12 08:00:00 1.9 5 Nordeste 13 Nordeste 0 -- -- 82
2020-01-12 07:00:00 2.2 8 Nordeste 13 Nordeste 0 -- -- 81
2020-01-12 06:00:00 2.5 5 Nordeste 13 Norte 0 -- -- 80
2020-01-12 05:00:00 2.6 7 Norte 11 Norte 0 -- -- 80
2020-01-12 04:00:00 2.7 0 Calma 18 Nordeste 0 -- -- 78
2020-01-12 03:00:00 3.4 8 Nordeste 18 Nordeste 0 -- -- 77
2020-01-12 02:00:00 3.9 10 Nordeste 20 Nordeste 0 -- -- 75
2020-01-12 01:00:00 4.1 11 Nordeste 17 Nordeste 0 -- -- 72
2020-01-12 00:00:00 3.7 5 Nordeste 17 Nordeste 0 -- -- 72
2020-01-11 23:00:00 3.9 9 Nordeste 14 Nordeste 0 -- -- 71
2020-01-11 22:00:00 3.5 4 Nordeste 15 Nordeste 0 -- -- 73
2020-01-11 21:00:00 3.6 4 Nordeste 11 Nordeste 0 -- -- 74
2020-01-11 20:00:00 4.5 2 Norte 12 Nordeste 0 -- -- 72
2020-01-11 19:00:00 6 0 Calma 9 Nordeste 0 -- -- 67
2020-01-11 18:00:00 9.2 6 Nordeste 19 Nordeste 0 -- -- 56
2020-01-11 17:00:00 12.7 7 Nordeste 15 Nordeste 0 -- -- 41
2020-01-11 16:00:00 13 9 Nordeste 22 Nordeste 0 -- -- 42
2020-01-11 15:00:00 13 14 Nordeste 33 Nordeste 0 -- -- 42
2020-01-11 14:00:00 13.1 17 Nordeste 29 Nordeste 0 -- -- 41
2020-01-11 13:00:00 13.6 11 Norte 27 Norte 0 -- -- 40
2020-01-11 12:00:00 13.5 6 Sur 21 Sudoeste 0 -- -- 38
2020-01-11 11:00:00 12.6 5 Sur 33 Este 0 -- -- 41
2020-01-11 10:00:00 10.7 8 Sudoeste 22 Noroeste 0 -- -- 50
2020-01-11 09:00:00 8.8 9 Norte 20 Nordeste 0 -- -- 52
2020-01-11 08:00:00 6.8 2 Este 18 Norte 0 -- -- 61
2020-01-11 07:00:00 8.6 11 Norte 28 Nordeste 0 -- -- 56
2020-01-11 06:00:00 8.5 13 Norte 36 Noroeste 0 -- -- 59
2020-01-11 05:00:00 9.7 8 Norte 37 Oeste 0 -- -- 52
2020-01-11 04:00:00 10.6 19 Oeste 41 Sudoeste 0 -- -- 47
2020-01-11 03:00:00 10 21 Oeste 39 Noroeste 0 -- -- 53
2020-01-11 02:00:00 10.6 14 Sudeste 33 Este 0 -- -- 48
2020-01-11 01:00:00 9.9 13 Sudeste 42 Sudeste 0 -- -- 58
2020-01-11 00:00:00 10.4 12 Norte 70 Noroeste 0 -- -- 57
2020-01-10 23:00:00 10.5 29 Norte 69 Noroeste 0 -- -- 60
2020-01-10 22:00:00 10.5 27 Norte 64 Noroeste 0 -- -- 60
2020-01-10 21:00:00 10.9 34 Norte 85 Norte 0 -- -- 59
2020-01-10 20:00:00 11.1 36 Norte 77 Noroeste 0 -- -- 57
2020-01-10 19:00:00 11.3 28 Norte 87 Norte 0 -- -- 58
2020-01-10 18:00:00 11.3 38 Norte 77 Norte 0 -- -- 59
2020-01-10 17:00:00 13 36 Norte 81 Norte 0 -- -- 52
2020-01-10 16:00:00 13.9 40 Norte 73 Norte 0 -- -- 48
2020-01-10 15:00:00 13.4 35 Norte 66 Norte 0 -- -- 49
2020-01-10 14:00:00 13.9 27 Norte 69 Norte 0 -- -- 50
2020-01-10 13:00:00 13.5 33 Norte 67 Norte 0 -- -- 48
2020-01-10 12:00:00 13.8 19 Nordeste 51 Norte 0 -- -- 51
2020-01-10 11:00:00 12.4 19 Norte 50 Norte 0 -- -- 56
2020-01-10 10:00:00 11.9 24 Norte 48 Norte 0 -- -- 57
2020-01-10 09:00:00 10.8 8 Norte 18 Noroeste 0 -- -- 65
2020-01-10 08:00:00 10.2 9 Sudoeste 27 Noroeste 0 -- -- 71
2020-01-10 07:00:00 9.5 8 Noroeste 26 Norte 0 -- -- 77
2020-01-10 06:00:00 9.4 4 Sur 21 Sur 0.6 -- -- 81
2020-01-10 05:00:00 10.4 8 Noroeste 17 Sudeste 0.2 -- -- 73
2020-01-10 04:00:00 10.7 5 Este 25 Sudeste 0 -- -- 76
2020-01-10 03:00:00 11.1 13 Este 28 Este 0 -- -- 71
2020-01-10 02:00:00 9.6 7 Sudeste 16 Sudeste 0 -- -- 82
2020-01-10 01:00:00 9.4 4 Sudoeste 14 Noroeste 0 -- -- 84
2020-01-10 00:00:00 9.6 4 Sudoeste 15 Nordeste 0 -- -- 85
2020-01-09 23:00:00 9.1 8 Este 12 Nordeste 0 -- -- 89
2020-01-09 22:00:00 8.5 5 Nordeste 12 Nordeste 0 -- -- 91
2020-01-09 21:00:00 7.4 4 Nordeste 8 Norte 0 -- -- 92
2020-01-09 20:00:00 7.5 5 Norte 10 Nordeste 0 -- -- 88
2020-01-09 19:00:00 8.6 3 Norte 9 Noroeste 0 -- -- 81
2020-01-09 18:00:00 10.9 5 Este 12 Sur 0 -- -- 73
2020-01-09 17:00:00 14.1 9 Sur 24 Sudoeste 0 -- -- 65
2020-01-09 16:00:00 15.5 13 Sudoeste 27 Sur 0 -- -- 60
2020-01-09 15:00:00 15.8 15 Sur 26 Sudoeste 0 -- -- 61
2020-01-09 14:00:00 14.4 6 Sudoeste 12 Sur 0 -- -- 66
2020-01-09 13:00:00 12.6 3 Noroeste 10 Oeste 0 -- -- 71
2020-01-09 12:00:00 11.5 4 Sur 13 Sur 0 -- -- 74
2020-01-09 11:00:00 10.7 6 Sur 14 Sur 0 -- -- 77
2020-01-09 10:00:00 9.3 0 Calma 10 Norte 0 -- -- 85
2020-01-09 09:00:00 5.7 5 Nordeste 14 Nordeste 0 -- -- 92
2020-01-09 08:00:00 4.5 3 Nordeste 15 Nordeste 0 -- -- 90
2020-01-09 07:00:00 4.5 10 Nordeste 14 Nordeste 0 -- -- 91
2020-01-09 06:00:00 3.5 0 Calma 13 Nordeste 0 -- -- 90
2020-01-09 05:00:00 4.4 5 Nordeste 12 Nordeste 0 -- -- 89
2020-01-09 04:00:00 4.6 6 Nordeste 11 Nordeste 0 -- -- 87
2020-01-09 03:00:00 5.2 3 Norte 9 Nordeste 0 -- -- 88
2020-01-09 02:00:00 5.7 5 Nordeste 12 Nordeste 0 -- -- 89
2020-01-09 01:00:00 5.7 5 Nordeste 10 Nordeste 0 -- -- 90
2020-01-09 00:00:00 6.1 6 Nordeste 10 Nordeste 0 -- -- 89
2020-01-08 23:00:00 6.4 8 Nordeste 12 Nordeste 0 -- -- 86
2020-01-08 22:00:00 6.6 7 Nordeste 12 Nordeste 0 -- -- 85
2020-01-08 21:00:00 7.1 5 Nordeste 10 Nordeste 0 -- -- 83
2020-01-08 20:00:00 7.8 3 Nordeste 10 Nordeste 0 -- -- 85
2020-01-08 19:00:00 8.6 5 Norte 9 Nordeste 0 -- -- 80
2020-01-08 18:00:00 10.7 4 Nordeste 6 Nordeste 0 -- -- 75
2020-01-08 17:00:00 15.1 4 Sur 17 Sur 0 -- -- 58
2020-01-08 16:00:00 16 11 Sur 17 Sur 0 -- -- 54
2020-01-08 15:00:00 17.1 9 Sudeste 18 Sur 0 -- -- 49
2020-01-08 14:00:00 17.3 5 Nordeste 25 Nordeste 0 -- -- 48
2020-01-08 13:00:00 16.2 15 Nordeste 29 Nordeste 0 -- -- 52
2020-01-08 12:00:00 16.1 15 Nordeste 28 Nordeste 0 -- -- 55
2020-01-08 11:00:00 15.3 16 Nordeste 29 Este 0 -- -- 58
2020-01-08 10:00:00 13.3 8 Nordeste 20 Nordeste 0 -- -- 66
2020-01-08 09:00:00 12.9 13 Nordeste 30 Nordeste 0 -- -- 71
2020-01-08 08:00:00 12.3 16 Nordeste 32 Nordeste 0 -- -- 72
2020-01-08 07:00:00 12.4 18 Nordeste 32 Nordeste 0 -- -- 72
2020-01-08 06:00:00 11.6 4 Noroeste 17 Sudoeste 0 -- -- 71
2020-01-08 05:00:00 12.3 6 Sudeste 18 Sudoeste 0 -- -- 68
2020-01-08 04:00:00 11.5 8 Sudeste 16 Noroeste 0 -- -- 72
2020-01-08 03:00:00 11.8 5 Sudeste 14 Este 0 -- -- 70
2020-01-08 02:00:00 14 8 Noroeste 31 Noroeste 0 -- -- 61
2020-01-08 01:00:00 12.1 6 Norte 28 Noroeste 0 -- -- 70
2020-01-08 00:00:00 13.2 18 Oeste 32 Noroeste 0 -- -- 64
2020-01-07 23:00:00 14.3 19 Norte 48 Norte 0 -- -- 60
2020-01-07 22:00:00 14.4 12 Norte 37 Norte 0 -- -- 59
2020-01-07 21:00:00 15.4 21 Norte 44 Norte 0 -- -- 57
2020-01-07 20:00:00 15.4 21 Norte 41 Noroeste 0 -- -- 57
2020-01-07 19:00:00 14.8 18 Norte 36 Norte 0 -- -- 57
2020-01-07 18:00:00 14.6 15 Norte 36 Norte 0 -- -- 57
2020-01-07 17:00:00 15.3 5 Noroeste 15 Oeste 0 -- -- 63
2020-01-07 16:00:00 16.5 10 Sudoeste 18 Sudoeste 0 -- -- 58
2020-01-07 15:00:00 16 6 Sudoeste 13 Sudoeste 0 -- -- 55
2020-01-07 14:00:00 14.6 7 Sur 12 Sur 0 -- -- 61
2020-01-07 13:00:00 13.5 5 Sudoeste 13 Sudoeste 0 -- -- 63
2020-01-07 12:00:00 12.7 5 Sur 12 Sudoeste 0 -- -- 66
2020-01-07 11:00:00 11.7 0 Calma 8 Nordeste 0 -- -- 67
2020-01-07 10:00:00 8.3 3 Nordeste 13 Nordeste 0 -- -- 82
2020-01-07 09:00:00 4.4 3 Nordeste 8 Norte 0 -- -- 90
2020-01-07 08:00:00 4.6 3 Norte 19 Nordeste 0 -- -- 83
2020-01-07 07:00:00 5.7 15 Nordeste 24 Nordeste 0 -- -- 79
2020-01-07 06:00:00 5.3 18 Nordeste 23 Nordeste 0 -- -- 79
2020-01-07 05:00:00 3.5 4 Nordeste 12 Nordeste 0 -- -- 86
2020-01-07 04:00:00 3.7 6 Nordeste 14 Nordeste 0 -- -- 85
2020-01-07 03:00:00 4.4 6 Nordeste 14 Nordeste 0 -- -- 86
2020-01-07 02:00:00 4.7 5 Nordeste 13 Nordeste 0 -- -- 91
2020-01-07 01:00:00 4.8 3 Norte 8 Nordeste 0 -- -- 93
2020-01-07 00:00:00 6.2 4 Norte 11 Sur 0 -- -- 92
2020-01-06 23:00:00 6.1 3 Sudeste 12 Nordeste 0 -- -- 89
2020-01-06 22:00:00 6.4 4 Norte 14 Nordeste 0 -- -- 89
2020-01-06 21:00:00 6.9 5 Nordeste 16 Nordeste 0 -- -- 88
2020-01-06 20:00:00 7.7 7 Nordeste 13 Nordeste 0 -- -- 87
2020-01-06 19:00:00 8 3 Nordeste 8 Nordeste 0 -- -- 85
2020-01-06 18:00:00 9.7 7 Nordeste 10 Nordeste 0 -- -- 80
2020-01-06 17:00:00 13.2 4 Sur 11 Sur 0 -- -- 67
2020-01-06 16:00:00 14.6 4 Sudoeste 12 Sur 0 -- -- 59
2020-01-06 15:00:00 14.9 8 Sudoeste 17 Sur 0 -- -- 60
2020-01-06 14:00:00 14.5 9 Sudoeste 15 Sudoeste 0 -- -- 62
2020-01-06 13:00:00 14.4 7 Sudoeste 17 Sudoeste 0 -- -- 62
2020-01-06 12:00:00 14.2 5 Sur 10 Sudeste 0 -- -- 63
2020-01-06 11:00:00 11.9 3 Sudeste 5 Sudeste 0 -- -- 73
2020-01-06 10:00:00 9.6 0 Calma 6 Nordeste 0 -- -- 82